Time;durP1;ratioP1;P1;durP2;ratioP2;P2;SDS_P1;SDS_P2;PMS_P1;PMS_P2;Temp;Humidity;BMP_temperature;BMP_pressure;BME280_temperature;BME280_humidity;BME280_pressure;Samples;Min_cycle;Max_cycle;Signal;HPM_P1;HPM_P2
2023/11/13 00:00:55;;;;;;;10.88;8.85;;;;;;;8.45;100.00;97604.94;4168290;28;20208;-85
2023/11/13 00:02:59;;;;;;;10.02;8.10;;;;;;;8.49;100.00;97599.44;4187277;28;20248;-85
2023/11/13 00:05:04;;;;;;;8.85;7.57;;;;;;;8.51;100.00;97602.75;4197733;28;20205;-85
2023/11/13 00:07:07;;;;;;;7.78;6.82;;;;;;;8.54;100.00;97601.72;4191954;28;20264;-86
2023/11/13 00:09:12;;;;;;;6.30;5.45;;;;;;;8.56;100.00;97605.03;4169861;28;20234;-84
2023/11/13 00:11:15;;;;;;;6.43;5.72;;;;;;;8.57;100.00;97609.31;4169928;28;20248;-85
2023/11/13 00:13:18;;;;;;;7.00;5.85;;;;;;;8.59;100.00;97610.03;4189820;28;20308;-85
2023/11/13 00:15:22;;;;;;;6.18;5.53;;;;;;;8.59;100.00;97604.84;4158094;28;20710;-85
2023/11/13 00:17:26;;;;;;;7.40;5.28;;;;;;;8.60;100.00;97606.47;4171962;28;20202;-86
2023/11/13 00:19:28;;;;;;;7.07;5.90;;;;;;;8.63;100.00;97601.06;4159190;28;20305;-85
2023/11/13 00:21:31;;;;;;;11.40;10.20;;;;;;;8.66;100.00;97595.66;4156970;28;20211;-86
2023/11/13 00:23:37;;;;;;;12.38;10.45;;;;;;;8.66;100.00;97591.31;4161287;28;20217;-85
2023/11/13 00:25:41;;;;;;;12.18;9.98;;;;;;;8.68;100.00;97578.22;4167696;28;20297;-84
2023/11/13 00:27:45;;;;;;;9.65;8.38;;;;;;;8.68;100.00;97578.22;4151776;28;20211;-85
2023/11/13 00:29:48;;;;;;;10.32;8.27;;;;;;;8.67;100.00;97572.16;4152893;28;20256;-85
2023/11/13 00:31:52;;;;;;;6.35;5.60;;;;;;;8.69;100.00;97574.66;4175528;28;20225;-86
2023/11/13 00:33:55;;;;;;;6.50;5.35;;;;;;;8.68;100.00;97567.81;4158892;28;20704;-85
2023/11/13 00:35:58;;;;;;;4.70;4.15;;;;;;;8.69;100.00;97569.47;4169611;28;20202;-86
2023/11/13 00:38:01;;;;;;;4.90;4.00;;;;;;;8.71;100.00;97568.44;4171920;28;20723;-85
2023/11/13 00:40:05;;;;;;;4.30;3.40;;;;;;;8.75;100.00;97576.84;4153982;28;20633;-85
2023/11/13 00:42:11;;;;;;;4.03;3.50;;;;;;;8.78;100.00;97582.66;4170698;28;20809;-85
2023/11/13 00:44:14;;;;;;;8.45;7.55;;;;;;;8.78;100.00;97582.66;4157583;28;20245;-85
2023/11/13 00:46:18;;;;;;;9.55;6.82;;;;;;;8.77;100.00;97574.97;4175597;28;20209;-86
2023/11/13 00:48:22;;;;;;;7.97;6.38;;;;;;;8.76;100.00;97573.31;4161011;28;20302;-85
2023/11/13 00:50:25;;;;;;;8.70;6.60;;;;;;;8.74;100.00;97563.00;4158110;28;20216;-85
2023/11/13 00:52:28;;;;;;;9.35;7.25;;;;;;;8.72;100.00;97570.09;4169393;28;20281;-86
2023/11/13 00:54:30;;;;;;;12.95;8.85;;;;;;;8.71;100.00;97562.41;4169469;28;20204;-85
2023/11/13 00:56:34;;;;;;;13.48;8.43;;;;;;;8.67;100.00;97558.34;4173828;28;20242;-85
2023/11/13 00:58:38;;;;;;;21.35;10.55;;;;;;;8.64;100.00;97555.97;4175875;28;20212;-85
2023/11/13 01:00:41;;;;;;;22.60;10.35;;;;;;;8.63;100.00;97551.69;4158861;28;20265;-85
2023/11/13 01:02:44;;;;;;;11.40;7.70;;;;;;;8.64;100.00;97551.59;4156398;28;20766;-86
2023/11/13 01:04:48;;;;;;;9.95;6.75;;;;;;;8.65;100.00;97552.44;4186761;28;20247;-85
2023/11/13 01:06:55;;;;;;;8.68;6.82;;;;;;;8.65;100.00;97548.06;4154210;28;20257;-86
2023/11/13 01:08:58;;;;;;;9.55;7.60;;;;;;;8.65;100.00;97535.06;4184822;28;20197;-86
2023/11/13 01:11:00;;;;;;;8.52;6.50;;;;;;;8.64;100.00;97536.00;4159394;28;20677;-84
2023/11/13 01:13:04;;;;;;;7.43;6.13;;;;;;;8.63;100.00;97536.09;4159686;28;20821;-84
2023/11/13 01:15:12;;;;;;;9.50;7.00;;;;;;;8.65;100.00;97540.25;4186965;28;20680;-84
2023/11/13 01:17:15;;;;;;;9.35;6.68;;;;;;;8.66;100.00;97544.53;4173720;28;20645;-85
2023/11/13 01:19:19;;;;;;;7.90;6.30;;;;;;;8.55;100.00;97546.19;4171196;28;20281;-85
2023/11/13 01:21:22;;;;;;;7.78;6.60;;;;;;;8.52;100.00;97541.22;4185727;28;20639;-84
2023/11/13 01:23:26;;;;;;;7.97;6.40;;;;;;;8.51;100.00;97545.59;4188318;28;20228;-85
2023/11/13 01:25:29;;;;;;;7.65;6.43;;;;;;;8.52;100.00;97547.25;4183675;28;20683;-85
2023/11/13 01:27:32;;;;;;;9.10;6.80;;;;;;;8.52;100.00;97542.06;4159693;28;20210;-84
2023/11/13 01:29:36;;;;;;;9.90;7.72;;;;;;;8.56;100.00;97553.06;4183751;28;20201;-85
2023/11/13 01:31:41;;;;;;;8.30;7.15;;;;;;;8.56;100.00;97545.28;4173157;28;20615;-85
2023/11/13 01:33:44;;;;;;;9.65;7.47;;;;;;;8.58;100.00;97545.97;4158861;28;20226;-84
2023/11/13 01:35:48;;;;;;;8.18;6.75;;;;;;;8.56;100.00;97538.28;4159998;28;20213;-85
2023/11/13 01:37:50;;;;;;;7.95;6.20;;;;;;;8.58;100.00;97548.59;4160131;28;20202;-85
2023/11/13 01:39:54;;;;;;;9.20;7.53;;;;;;;8.60;100.00;97542.34;4154220;28;20210;-84
2023/11/13 01:41:57;;;;;;;10.30;6.78;;;;;;;8.61;100.00;97524.97;4170619;28;20206;-85
2023/11/13 01:44:00;;;;;;;8.80;7.13;;;;;;;8.63;100.00;97499.72;4157858;28;20229;-85
2023/11/13 01:46:05;;;;;;;10.05;7.57;;;;;;;8.62;100.00;97490.28;4166996;28;20310;-85
2023/11/13 01:48:09;;;;;;;9.70;8.20;;;;;;;8.63;100.00;97492.75;4154769;28;20305;-85
2023/11/13 01:50:13;;;;;;;8.32;7.18;;;;;;;8.64;100.00;97502.19;4185265;28;20668;-85
2023/11/13 01:52:16;;;;;;;8.93;7.35;;;;;;;8.63;100.00;97507.50;4158151;28;20216;-85
2023/11/13 01:54:21;;;;;;;10.43;7.75;;;;;;;8.65;100.00;97510.84;4169526;28;20201;-84
2023/11/13 01:56:26;;;;;;;7.40;5.95;;;;;;;8.70;100.00;97500.94;4172378;28;20617;-85
2023/11/13 01:58:29;;;;;;;7.82;6.65;;;;;;;8.71;100.00;97494.81;4155996;28;20302;-85
2023/11/13 02:00:34;;;;;;;9.05;7.13;;;;;;;8.72;100.00;97499.91;4174674;28;20659;-84
2023/11/13 02:02:37;;;;;;;8.93;7.35;;;;;;;8.73;100.00;97485.13;4166840;28;20213;-85
2023/11/13 02:04:41;;;;;;;7.88;6.65;;;;;;;8.74;100.00;97492.00;4152871;28;20377;-85
2023/11/13 02:06:45;;;;;;;9.35;7.40;;;;;;;8.75;100.00;97498.84;4156879;28;20251;-84
2023/11/13 02:08:49;;;;;;;8.43;6.82;;;;;;;8.76;100.00;97493.53;4184359;28;20672;-85
2023/11/13 02:10:53;;;;;;;9.88;7.35;;;;;;;8.76;100.00;97480.53;4158154;28;20282;-85
2023/11/13 02:12:55;;;;;;;9.70;7.80;;;;;;;8.77;100.00;97474.41;4166549;28;20207;-84
2023/11/13 02:14:59;;;;;;;8.32;6.80;;;;;;;8.77;100.00;97469.22;4158436;28;20631;-85
2023/11/13 02:17:03;;;;;;;9.02;7.40;;;;;;;8.79;100.00;97477.72;4153313;28;20686;-86
2023/11/13 02:19:07;;;;;;;7.80;6.50;;;;;;;8.80;100.00;97486.38;4170776;28;20202;-84
2023/11/13 02:21:12;;;;;;;8.75;7.05;;;;;;;8.79;100.00;97495.09;4155813;28;20293;-85
2023/11/13 02:23:17;;;;;;;8.38;6.90;;;;;;;8.82;100.00;97493.09;4173499;28;20226;-86
2023/11/13 02:25:26;;;;;;;8.80;7.38;;;;;;;8.82;100.00;97494.88;4155290;28;20202;-84
2023/11/13 02:27:30;;;;;;;9.10;7.20;;;;;;;8.82;100.00;97487.09;4171251;28;20205;-85
2023/11/13 02:29:33;;;;;;;9.77;7.03;;;;;;;8.81;100.00;97486.28;4161223;28;20195;-85
2023/11/13 02:31:36;;;;;;;8.68;7.10;;;;;;;8.79;100.00;97493.31;4157502;28;20226;-84
2023/11/13 02:33:40;;;;;;;7.68;6.88;;;;;;;8.77;100.00;97490.00;4171059;28;20731;-85
2023/11/13 02:35:42;;;;;;;8.45;6.90;;;;;;;8.75;100.00;97494.50;4159201;28;20205;-84
2023/11/13 02:37:45;;;;;;;8.73;6.95;;;;;;;8.77;100.00;97489.19;4175240;28;20226;-85
2023/11/13 02:39:50;;;;;;;8.85;7.00;;;;;;;8.78;100.00;97483.88;4153136;28;20219;-85
2023/11/13 02:41:55;;;;;;;8.77;6.75;;;;;;;8.80;100.00;97487.19;4156897;28;20302;-84
2023/11/13 02:43:58;;;;;;;7.88;6.70;;;;;;;8.79;100.00;97482.09;4155789;28;20941;-84
2023/11/13 02:46:01;;;;;;;9.20;6.93;;;;;;;8.82;100.00;97474.09;4165435;28;20269;-85
2023/11/13 02:48:05;;;;;;;9.50;7.15;;;;;;;8.85;100.00;97497.28;4163696;28;20298;-85
2023/11/13 02:50:09;;;;;;;8.25;7.10;;;;;;;8.87;100.00;97484.97;4162622;28;20207;-85
2023/11/13 02:52:12;;;;;;;9.15;6.50;;;;;;;8.87;100.00;97480.63;4167221;28;20216;-84
2023/11/13 02:54:16;;;;;;;6.88;5.93;;;;;;;8.88;100.00;97474.47;4181884;28;20207;-84
2023/11/13 02:56:20;;;;;;;6.78;5.75;;;;;;;8.89;100.00;97447.53;4155971;28;20249;-85
2023/11/13 02:58:23;;;;;;;8.70;6.75;;;;;;;8.91;100.00;97463.03;4169057;28;20301;-85
2023/11/13 03:00:28;;;;;;;7.38;6.03;;;;;;;8.91;100.00;97452.63;4157867;28;20215;-84
2023/11/13 03:02:34;;;;;;;7.13;5.82;;;;;;;8.92;100.00;97442.94;4151387;28;20215;-85
2023/11/13 03:04:37;;;;;;;7.00;6.05;;;;;;;8.94;100.00;97451.50;4172529;28;20257;-85
2023/11/13 03:06:41;;;;;;;9.00;6.68;;;;;;;8.94;100.00;97456.69;4174092;28;20232;-86
2023/11/13 03:08:45;;;;;;;7.88;5.95;;;;;;;8.96;100.00;97460.00;4172865;28;20254;-85
2023/11/13 03:10:49;;;;;;;7.63;5.72;;;;;;;8.96;100.00;97440.97;4183644;28;20217;-85
2023/11/13 03:12:54;;;;;;;7.78;6.28;;;;;;;8.98;100.00;97429.50;4151201;28;20195;-85
2023/11/13 03:14:57;;;;;;;8.88;6.40;;;;;;;9.00;100.00;97429.38;4169511;28;20261;-85
2023/11/13 03:17:00;;;;;;;8.10;6.20;;;;;;;8.98;100.00;97437.31;4174003;28;20806;-85
2023/11/13 03:19:04;;;;;;;6.63;5.40;;;;;;;8.99;100.00;97454.56;4168247;28;20210;-85
2023/11/13 03:21:07;;;;;;;5.93;5.22;;;;;;;8.94;100.00;97467.09;4183659;28;20213;-86
2023/11/13 03:23:10;;;;;;;6.00;5.40;;;;;;;8.92;100.00;97475.09;4155624;28;20222;-85
2023/11/13 03:25:14;;;;;;;6.68;5.13;;;;;;;8.92;100.00;97452.53;4173125;28;20648;-83
2023/11/13 03:27:17;;;;;;;6.47;5.40;;;;;;;8.96;100.00;97439.19;4173487;28;20262;-85
2023/11/13 03:29:22;;;;;;;6.10;4.85;;;;;;;8.99;100.00;97436.38;4168191;28;20209;-84
2023/11/13 03:31:26;;;;;;;6.95;5.10;;;;;;;9.01;100.00;97465.69;4169927;28;20272;-85
2023/11/13 03:33:29;;;;;;;5.50;4.10;;;;;;;9.04;100.00;97451.66;4167838;28;20226;-85
2023/11/13 03:35:32;;;;;;;6.32;4.47;;;;;;;9.04;100.00;97452.47;4167004;28;20739;-84
2023/11/13 03:37:35;;;;;;;5.53;4.60;;;;;;;9.07;100.00;97457.44;4172664;28;20738;-84
2023/11/13 03:39:38;;;;;;;6.57;4.67;;;;;;;9.05;100.00;97451.53;4185728;28;20206;-84
2023/11/13 03:41:41;;;;;;;5.78;4.60;;;;;;;9.04;100.00;97451.66;4174537;28;20632;-84
2023/11/13 03:43:43;;;;;;;4.32;3.72;;;;;;;9.05;100.00;97448.94;4154181;28;20729;-84
2023/11/13 03:45:48;;;;;;;4.50;3.53;;;;;;;9.05;100.00;97443.72;4157566;28;20198;-84
2023/11/13 03:47:50;;;;;;;5.13;4.30;;;;;;;9.07;100.00;97460.03;4175078;28;20292;-85
2023/11/13 03:49:54;;;;;;;4.30;3.90;;;;;;;9.10;100.00;97456.41;4159174;28;20206;-85
2023/11/13 03:51:57;;;;;;;4.95;3.95;;;;;;;9.11;100.00;97456.28;4175609;28;20755;-85
2023/11/13 03:54:00;;;;;;;3.63;3.00;;;;;;;9.11;100.00;97468.44;4176000;28;20549;-84
2023/11/13 03:56:04;;;;;;;3.78;3.30;;;;;;;9.12;100.00;97460.53;4173877;28;20624;-84
2023/11/13 03:58:08;;;;;;;4.00;3.13;;;;;;;9.13;100.00;97466.59;4163045;28;20569;-84
2023/11/13 04:00:13;;;;;;;5.70;3.72;;;;;;;9.13;100.00;97479.59;4158077;28;20908;-85
2023/11/13 04:02:18;;;;;;;5.50;3.63;;;;;;;9.09;100.00;97484.16;4188057;28;20680;-84
2023/11/13 04:04:21;;;;;;;5.80;3.92;;;;;;;9.13;100.00;97482.19;4155309;28;20245;-84
2023/11/13 04:06:24;;;;;;;4.15;3.63;;;;;;;9.13;100.00;97492.59;4186400;28;20198;-85
2023/11/13 04:08:27;;;;;;;4.32;3.40;;;;;;;9.12;100.00;97486.53;4169590;28;20199;-85
2023/11/13 04:10:31;;;;;;;4.40;3.67;;;;;;;9.11;100.00;97495.31;4154182;28;20207;-85
2023/11/13 04:12:34;;;;;;;4.43;3.47;;;;;;;9.12;100.00;97496.13;4156873;28;20211;-84
2023/11/13 04:14:38;;;;;;;5.07;3.53;;;;;;;9.15;100.00;97493.31;4154208;28;20626;-86
2023/11/13 04:16:41;;;;;;;4.57;3.92;;;;;;;9.19;100.00;97503.38;4167007;28;20623;-84
2023/11/13 04:18:46;;;;;;;5.00;3.95;;;;;;;9.21;100.00;97491.09;4187866;28;20256;-85
2023/11/13 04:20:49;;;;;;;5.57;3.63;;;;;;;9.23;100.00;97502.22;4172534;28;20217;-85
2023/11/13 04:22:54;;;;;;;5.68;3.78;;;;;;;9.26;100.00;97502.00;4161774;28;20640;-85
2023/11/13 04:24:56;;;;;;;4.15;3.25;;;;;;;9.29;100.00;97495.72;4173435;28;20335;-84
2023/11/13 04:27:00;;;;;;;4.00;3.17;;;;;;;9.32;100.00;97506.75;4172954;28;20232;-84
2023/11/13 04:29:03;;;;;;;4.90;4.23;;;;;;;9.32;100.00;97506.75;4175288;28;20242;-84
2023/11/13 04:31:06;;;;;;;4.15;3.65;;;;;;;9.36;100.00;97504.75;4158629;28;20660;-83
2023/11/13 04:33:09;;;;;;;4.20;3.80;;;;;;;9.39;100.00;97528.78;4172039;28;20297;-84
2023/11/13 04:35:14;;;;;;;4.53;3.67;;;;;;;9.42;100.00;97520.75;4157552;28;20216;-85
2023/11/13 04:37:19;;;;;;;4.00;3.50;;;;;;;9.45;100.00;97520.53;4167145;28;20230;-85
2023/11/13 04:39:23;;;;;;;4.65;3.60;;;;;;;9.49;100.00;97527.19;4189015;28;20623;-84
2023/11/13 04:41:26;;;;;;;3.90;3.28;;;;;;;9.52;100.00;97519.16;4182261;28;20242;-84
2023/11/13 04:43:29;;;;;;;4.60;4.10;;;;;;;9.54;100.00;97520.69;4166214;28;20226;-84
2023/11/13 04:45:34;;;;;;;3.83;3.40;;;;;;;9.57;100.00;97519.63;4176155;28;20664;-84
2023/11/13 04:47:38;;;;;;;4.28;3.50;;;;;;;9.57;100.00;97517.03;4188591;28;20205;-84
2023/11/13 04:49:41;;;;;;;4.00;3.60;;;;;;;9.58;100.00;97521.31;4180081;28;20213;-84
2023/11/13 04:51:46;;;;;;;5.20;3.90;;;;;;;9.59;100.00;97512.53;4168204;28;20643;-84
2023/11/13 04:53:49;;;;;;;8.60;4.05;;;;;;;9.60;100.00;97514.19;4184733;28;20605;-85
2023/11/13 04:55:52;;;;;;;4.10;3.70;;;;;;;9.64;100.00;97520.84;4173680;28;20218;-85
2023/11/13 04:57:55;;;;;;;4.45;3.70;;;;;;;9.65;100.00;97515.53;4184507;28;20639;-85
2023/11/13 04:59:59;;;;;;;4.37;3.90;;;;;;;9.65;100.00;97512.06;4186616;28;20213;-84
2023/11/13 05:02:02;;;;;;;4.55;3.22;;;;;;;9.66;100.00;97511.97;4156812;28;20645;-85
2023/11/13 05:04:07;;;;;;;4.60;4.00;;;;;;;9.68;100.00;97517.06;4170845;28;20264;-85
2023/11/13 05:06:14;;;;;;;5.30;3.93;;;;;;;9.73;100.00;97520.19;4179772;28;20706;-84
2023/11/13 05:08:19;;;;;;;4.10;3.70;;;;;;;9.77;100.00;97527.63;4162476;28;20619;-84
2023/11/13 05:10:22;;;;;;;3.70;3.23;;;;;;;9.82;100.00;97527.28;4184907;28;21201;-84
2023/11/13 05:12:25;;;;;;;4.38;3.75;;;;;;;9.84;100.00;97527.06;4169519;28;20724;-85
2023/11/13 05:14:28;;;;;;;4.80;3.60;;;;;;;9.88;100.00;97530.28;4172009;28;20289;-85
2023/11/13 05:16:31;;;;;;;4.30;3.60;;;;;;;9.89;100.00;97526.72;4185182;28;20628;-85
2023/11/13 05:18:35;;;;;;;3.67;3.30;;;;;;;9.92;100.00;97529.09;4173216;28;20713;-84
2023/11/13 05:20:43;;;;;;;4.13;3.63;;;;;;;9.96;100.00;97535.78;4154307;28;20211;-84
2023/11/13 05:22:48;;;;;;;4.37;3.70;;;;;;;9.98;100.00;97526.91;4183828;28;20201;-85
2023/11/13 05:24:52;;;;;;;4.63;3.43;;;;;;;10.02;100.00;97528.31;4157119;28;20638;-84
2023/11/13 05:26:56;;;;;;;5.30;3.80;;;;;;;10.07;100.00;97531.44;4159817;28;20618;-84
2023/11/13 05:28:59;;;;;;;4.90;3.33;;;;;;;10.11;100.00;97527.63;4182655;28;20632;-85
2023/11/13 05:31:03;;;;;;;3.60;3.30;;;;;;;10.14;100.00;97529.19;4169161;28;20662;-84
2023/11/13 05:33:06;;;;;;;4.97;3.60;;;;;;;10.18;100.00;97531.44;4173872;28;20635;-85
2023/11/13 05:35:10;;;;;;;6.40;4.53;;;;;;;10.19;100.00;97534.88;4153651;28;20633;-84
2023/11/13 05:37:13;;;;;;;6.07;4.37;;;;;;;10.23;100.00;97531.91;4162681;28;20649;-84
2023/11/13 05:39:16;;;;;;;6.50;4.00;;;;;;;10.27;100.00;97530.75;4167450;28;21107;-85
2023/11/13 05:41:21;;;;;;;7.03;4.53;;;;;;;10.31;100.00;97528.72;4153894;28;20724;-86
2023/11/13 05:43:24;;;;;;;4.67;3.20;;;;;;;10.35;100.00;97530.97;4169797;28;20664;-83
2023/11/13 05:45:28;;;;;;;4.40;3.50;;;;;;;10.39;100.00;97532.41;4173703;28;20744;-84
2023/11/13 05:47:31;;;;;;;4.10;3.70;;;;;;;10.42;100.00;97526.97;4170925;28;20621;-84
2023/11/13 05:49:34;;;;;;;4.97;3.87;;;;;;;10.45;100.00;97531.94;4181126;28;20635;-84
2023/11/13 05:51:37;;;;;;;4.65;3.58;;;;;;;10.48;100.00;97534.31;4185929;28;20691;-84
2023/11/13 05:53:40;;;;;;;3.10;2.73;;;;;;;10.47;100.00;97527.44;4185501;28;20553;-83
2023/11/13 05:55:43;;;;;;;5.50;4.00;;;;;;;10.48;100.00;97542.16;4171615;28;20625;-84
2023/11/13 05:57:48;;;;;;;4.20;3.50;;;;;;;10.50;100.00;97540.25;4174931;28;20633;-83
2023/11/13 05:59:51;;;;;;;6.40;5.30;;;;;;;10.47;100.00;97536.06;4182605;28;20679;-84
2023/11/13 06:01:54;;;;;;;140.20;17.60;;;;;;;10.44;100.00;97538.91;4153396;28;20743;-84
2023/11/13 06:03:57;;;;;;;5.60;4.87;;;;;;;10.42;100.00;97543.44;4173015;28;20624;-84
2023/11/13 06:06:01;;;;;;;6.00;4.70;;;;;;;10.43;100.00;97544.25;4158616;28;21081;-83
2023/11/13 06:08:05;;;;;;;5.80;4.70;;;;;;;10.43;100.00;97546.84;4168112;28;20622;-84
2023/11/13 06:10:10;;;;;;;4.57;3.57;;;;;;;10.44;100.00;97556.34;4165970;28;20625;-85
2023/11/13 06:12:13;;;;;;;7.53;3.37;;;;;;;10.46;100.00;97564.88;4180271;28;21044;-85
2023/11/13 06:14:18;;;;;;;326.93;298.47;;;;;;;10.53;100.00;97568.69;4174302;28;20680;-83
2023/11/13 06:16:21;;;;;;;58.30;13.13;;;;;;;10.57;100.00;97568.34;4168339;28;20699;-83
2023/11/13 06:18:25;;;;;;;4.90;3.87;;;;;;;10.62;100.00;97571.41;4165815;28;20696;-84
2023/11/13 06:20:28;;;;;;;4.10;3.10;;;;;;;10.67;100.00;97568.44;4173363;28;20683;-85
2023/11/13 06:22:31;;;;;;;5.60;3.60;;;;;;;10.72;100.00;97574.13;4159154;28;20687;-85
2023/11/13 06:24:35;;;;;;;21.97;15.30;;;;;;;10.70;100.00;97578.66;4173924;28;21087;-85
2023/11/13 06:26:38;;;;;;;5.33;4.70;;;;;;;10.67;100.00;97578.88;4182036;28;20909;-85
2023/11/13 06:28:41;;;;;;;5.07;4.07;;;;;;;10.70;100.00;97586.47;4169255;28;20639;-85
2023/11/13 06:30:46;;;;;;;495.53;120.30;;;;;;;10.73;100.00;97588.84;4178966;28;20669;-84
2023/11/13 06:32:49;;;;;;;5.43;4.20;;;;;;;10.75;100.00;97584.31;4180370;28;20620;-85
2023/11/13 06:34:52;;;;;;;5.30;4.07;;;;;;;10.78;100.00;97587.56;4183891;28;21210;-85
2023/11/13 06:36:55;;;;;;;10.17;4.67;;;;;;;10.79;100.00;97598.81;4183049;28;20619;-86
2023/11/13 06:38:59;;;;;;;6.93;3.90;;;;;;;10.80;100.00;97597.88;4174618;28;20628;-85
2023/11/13 06:41:03;;;;;;;6.70;3.87;;;;;;;10.81;100.00;97597.75;4155463;28;20733;-85
2023/11/13 06:43:07;;;;;;;9.87;4.47;;;;;;;10.81;100.00;97603.78;4175155;28;20616;-84
2023/11/13 06:45:11;;;;;;;5.70;4.43;;;;;;;10.82;100.00;97597.63;4167334;28;21489;-84
2023/11/13 06:47:16;;;;;;;7.60;5.10;;;;;;;10.83;100.00;97598.44;4181637;28;20764;-84
2023/11/13 06:49:21;;;;;;;6.50;4.67;;;;;;;10.80;100.00;97590.03;4184039;28;20625;-85
2023/11/13 06:51:23;;;;;;;7.00;4.13;;;;;;;10.80;100.00;97589.06;4155074;28;21453;-85
2023/11/13 06:53:26;;;;;;;6.87;3.73;;;;;;;10.81;100.00;97593.34;4155041;28;20621;-84
2023/11/13 06:55:31;;;;;;;7.27;4.60;;;;;;;10.81;100.00;97588.13;4168834;28;20716;-85
2023/11/13 06:57:34;;;;;;;6.07;4.50;;;;;;;10.83;100.00;97596.66;4187621;28;21187;-84
2023/11/13 06:59:37;;;;;;;8.50;4.53;;;;;;;10.86;100.00;97598.22;4170147;28;20680;-85
2023/11/13 07:01:41;;;;;;;6.27;4.40;;;;;;;10.87;100.00;97607.72;4167158;28;20630;-85
2023/11/13 07:03:46;;;;;;;6.40;3.90;;;;;;;10.89;100.00;97606.63;4171215;28;20664;-85
2023/11/13 07:05:49;;;;;;;6.57;4.20;;;;;;;10.92;100.00;97609.00;4171534;28;20690;-86
2023/11/13 07:07:55;;;;;;;5.13;3.93;;;;;;;10.92;100.00;97611.59;4189340;28;21686;-85
2023/11/13 07:10:01;;;;;;;5.77;4.03;;;;;;;10.91;100.00;97617.75;4182983;28;20612;-85
2023/11/13 07:12:04;;;;;;;10.00;4.83;;;;;;;10.92;100.00;97619.44;4172114;28;20628;-85
2023/11/13 07:14:07;;;;;;;5.83;4.70;;;;;;;10.91;100.00;97620.38;4157610;28;21077;-85
2023/11/13 07:16:12;;;;;;;7.37;4.23;;;;;;;10.95;100.00;97632.25;4172561;28;20639;-85
2023/11/13 07:18:15;;;;;;;6.47;4.30;;;;;;;10.97;100.00;97635.56;4169171;28;20640;-85
2023/11/13 07:20:23;;;;;;;8.40;5.30;;;;;;;10.98;100.00;97641.63;4159355;28;20685;-86
2023/11/13 07:22:28;;;;;;;6.30;4.70;;;;;;;10.98;100.00;97639.00;4176342;28;20738;-85
2023/11/13 07:24:31;;;;;;;8.83;6.67;;;;;;;10.97;100.00;97632.94;4155999;28;20633;-85
2023/11/13 07:26:34;;;;;;;10.80;8.17;;;;;;;10.99;100.00;97638.03;4161235;28;21071;-85
2023/11/13 07:28:38;;;;;;;7.70;5.70;;;;;;;10.98;100.00;97634.63;4159888;28;21205;-85
2023/11/13 07:30:42;;;;;;;36.93;23.53;;;;;;;11.01;100.00;97647.44;4190307;28;20660;-85
2023/11/13 07:32:46;;;;;;;12.87;8.33;;;;;;;11.01;100.00;97642.22;4158921;28;20655;-85
2023/11/13 07:34:51;;;;;;;12.67;8.20;;;;;;;11.02;100.00;97641.28;4186590;28;20674;-86
2023/11/13 07:36:55;;;;;;;7.50;5.37;;;;;;;11.05;100.00;97640.19;4188029;28;20616;-87
2023/11/13 07:38:59;;;;;;;7.37;5.47;;;;;;;11.07;100.00;97633.91;4176585;28;21249;-87
2023/11/13 07:41:02;;;;;;;6.43;5.23;;;;;;;11.09;100.00;97639.81;4168900;28;20641;-87
2023/11/13 07:43:08;;;;;;;7.20;4.70;;;;;;;11.12;100.00;97628.34;4157942;28;20727;-87
2023/11/13 07:45:12;;;;;;;5.97;3.80;;;;;;;11.15;100.00;97623.69;4177602;28;21105;-87
2023/11/13 07:47:16;;;;;;;6.17;3.93;;;;;;;11.21;100.00;97628.44;4158151;28;21455;-87
2023/11/13 07:49:19;;;;;;;7.37;3.80;;;;;;;11.26;100.00;97622.84;4185384;28;20722;-88
2023/11/13 07:51:22;;;;;;;10.17;3.90;;;;;;;11.31;100.00;97621.56;4176141;28;20652;-88
2023/11/13 07:53:26;;;;;;;6.47;4.27;;;;;;;11.32;100.00;97611.00;4190467;28;20662;-88
2023/11/13 07:55:29;;;;;;;9.10;4.20;;;;;;;11.34;100.00;97627.34;4163590;28;20621;-86
2023/11/13 07:57:32;;;;;;;10.20;6.40;;;;;;;11.35;100.00;97626.41;4177689;28;20667;-86
2023/11/13 07:59:36;;;;;;;7.13;4.03;;;;;;;11.40;100.00;97623.44;4178488;28;21185;-86
2023/11/13 08:01:40;;;;;;;8.70;4.73;;;;;;;11.46;100.00;97622.97;4192181;28;20652;-86
2023/11/13 08:03:44;;;;;;;7.70;4.90;;;;;;;11.48;100.00;97647.19;4161588;28;20643;-86
2023/11/13 08:05:47;;;;;;;13.20;5.07;;;;;;;11.48;100.00;97655.03;4190546;28;21262;-85
2023/11/13 08:07:49;;;;;;;13.33;4.50;;;;;;;11.50;100.00;97635.69;4178299;28;20667;-87
2023/11/13 08:09:54;;;;;;;13.00;7.73;;;;;;;11.53;100.00;97640.66;4163401;28;20989;-86
2023/11/13 08:11:58;;;;;;;11.47;9.50;;;;;;;11.56;100.00;97632.59;4180846;28;20628;-87
2023/11/13 08:14:02;;;;;;;12.57;7.97;;;;;;;11.59;100.00;97623.66;4160689;28;20697;-86
2023/11/13 08:16:06;;;;;;;14.47;8.30;;;;;;;11.59;100.00;97623.66;4179705;28;20621;-87
2023/11/13 08:18:13;;;;;;;13.63;9.50;;;;;;;11.63;100.00;97625.09;4163767;28;21274;-85
2023/11/13 08:20:18;;;;;;;18.33;10.67;;;;;;;11.65;100.00;97628.41;4159389;28;20643;-87
2023/11/13 08:22:21;;;;;;;13.70;8.50;;;;;;;11.64;100.00;97632.81;4188741;28;20734;-87
2023/11/13 08:24:25;;;;;;;13.37;7.10;;;;;;;11.66;100.00;97645.75;4174836;28;21244;-87
2023/11/13 08:26:29;;;;;;;10.10;6.23;;;;;;;11.68;100.00;97638.59;4188214;28;20638;-86
2023/11/13 08:28:33;;;;;;;10.50;5.40;;;;;;;11.69;100.00;97640.28;4189107;28;21042;-87
2023/11/13 08:30:36;;;;;;;8.60;4.50;;;;;;;11.68;100.00;97636.84;4175014;28;21063;-87
2023/11/13 08:32:40;;;;;;;11.40;4.70;;;;;;;11.70;100.00;97632.31;4187944;28;20673;-87
2023/11/13 08:34:43;;;;;;;9.50;5.60;;;;;;;11.74;100.00;97646.78;4184657;28;20621;-88
2023/11/13 08:36:47;;;;;;;15.30;10.37;;;;;;;11.76;100.00;97645.69;4187050;28;21211;-87
2023/11/13 08:38:52;;;;;;;19.87;12.20;;;;;;;11.78;100.00;97635.94;4170973;28;20645;-87
2023/11/13 08:40:55;;;;;;;12.33;6.07;;;;;;;11.76;100.00;97624.81;4185920;28;21216;-87
2023/11/13 08:42:59;;;;;;;6.90;4.40;;;;;;;11.80;100.00;97628.00;4168200;28;20632;-87
2023/11/13 08:45:09;;;;;;;9.00;4.40;;;;;;;11.82;100.00;97626.94;4170067;28;20610;-87
2023/11/13 08:47:12;;;;;;;7.00;4.00;;;;;;;11.83;100.00;97635.59;4190377;28;20757;-87
2023/11/13 08:49:16;;;;;;;10.47;3.77;;;;;;;11.84;100.00;97627.63;4172784;28;20640;-87
2023/11/13 08:51:24;;;;;;;9.37;3.87;;;;;;;11.86;100.00;97636.19;4160078;28;21049;-87
2023/11/13 08:53:28;;;;;;;11.93;6.37;;;;;;;11.89;100.00;97633.31;4191018;28;20957;-88
2023/11/13 08:55:32;;;;;;;12.47;7.83;;;;;;;11.89;100.00;97635.94;4161032;28;21284;-87
2023/11/13 08:57:38;;;;;;;12.60;7.43;;;;;;;11.86;100.00;97633.56;4178544;28;21240;-87
2023/11/13 08:59:42;;;;;;;15.10;11.73;;;;;;;11.88;100.00;97628.22;4178751;28;20731;-87
2023/11/13 09:01:45;;;;;;;15.27;11.10;;;;;;;11.88;100.00;97628.22;4190349;28;21667;-88
2023/11/13 09:03:49;;;;;;;20.90;11.50;;;;;;;11.89;100.00;97604.59;4174057;28;20691;-87
2023/11/13 09:05:51;;;;;;;83.07;20.30;;;;;;;11.89;100.00;97606.34;4178967;28;21241;-87
2023/11/13 09:07:55;;;;;;;24.83;14.47;;;;;;;11.87;100.00;97592.59;4171632;28;20651;-86
2023/11/13 09:10:08;;;;;;;17.53;9.90;;;;;;;11.84;100.00;97587.59;4187936;28;20617;-87
2023/11/13 09:12:12;;;;;;;17.97;10.17;;;;;;;11.80;100.00;97587.03;4173752;28;20617;-87
2023/11/13 09:14:22;;;;;;;13.07;8.00;;;;;;;11.77;100.00;97582.06;4174430;28;20662;-87
2023/11/13 09:16:26;;;;;;;15.50;7.03;;;;;;;11.79;100.00;97569.69;4185909;28;20632;-87
2023/11/13 09:18:30;;;;;;;11.63;6.80;;;;;;;11.84;100.00;97570.13;4158126;28;20631;-88
2023/11/13 09:20:34;;;;;;;12.87;4.30;;;;;;;11.87;100.00;97566.47;4187485;28;20631;-87
2023/11/13 09:22:37;;;;;;;12.00;3.40;;;;;;;11.88;100.00;97579.41;4169284;28;21071;-88
2023/11/13 09:24:41;;;;;;;10.53;4.00;;;;;;;11.89;100.00;97575.00;4172815;28;20613;-86
2023/11/13 09:26:47;;;;;;;9.00;3.40;;;;;;;11.90;100.00;97577.47;4158692;28;21085;-86
2023/11/13 09:28:51;;;;;;;11.80;2.83;;;;;;;11.91;100.00;97568.69;4169661;28;21244;-87
2023/11/13 09:30:55;;;;;;;16.27;4.27;;;;;;;11.90;100.00;97560.97;4178275;28;20644;-87
2023/11/13 09:33:01;;;;;;;8.87;2.80;;;;;;;11.88;100.00;97548.03;4159632;28;20649;-87
2023/11/13 09:35:07;;;;;;;7.57;2.53;;;;;;;11.88;100.00;97568.94;4174095;28;20634;-86
2023/11/13 09:37:10;;;;;;;6.27;2.33;;;;;;;11.89;100.00;97575.84;4173506;28;20628;-86